Time;durP1;ratioP1;P1;durP2;ratioP2;P2;SDS_P1;SDS_P2;PMS_P1;PMS_P2;Temp;Humidity;BMP_temperature;BMP_pressure;BME280_temperature;BME280_humidity;BME280_pressure;Samples;Min_cycle;Max_cycle;Signal;HPM_P1;HPM_P2
2021/12/07 00:01:42;;;;;;;;;3.00;3.00;;;;;7.83;69.14;100731.13;4995010;28;45291;-79
2021/12/07 00:04:08;;;;;;;;;2.50;2.50;;;;;7.84;69.32;100727.63;4993161;28;47300;-78
2021/12/07 00:06:35;;;;;;;;;4.00;2.00;;;;;7.62;69.32;100709.28;4994547;28;45811;-79
2021/12/07 00:09:06;;;;;;;;;3.25;2.25;;;;;7.85;69.43;100747.75;4995141;28;45460;-83
2021/12/07 00:11:33;;;;;;;;;3.75;3.00;;;;;7.90;68.89;100757.34;4994942;28;45341;-81
2021/12/07 00:14:11;;;;;;;;;2.00;2.00;;;;;7.53;69.51;100698.75;4994721;28;45448;-80
2021/12/07 00:16:37;;;;;;;;;6.25;3.00;;;;;7.51;69.33;100688.28;4996390;28;46033;-82
2021/12/07 00:19:04;;;;;;;;;2.00;1.25;;;;;7.50;68.96;100672.56;4977601;28;45427;-81
2021/12/07 00:21:29;;;;;;;;;4.00;2.00;;;;;7.83;68.90;100733.75;4994777;28;45466;-82
2021/12/07 00:23:55;;;;;;;;;4.50;4.00;;;;;7.86;69.19;100742.50;4995277;28;46014;-81
2021/12/07 00:26:20;;;;;;;;;5.00;2.25;;;;;7.66;68.75;100704.91;4994279;28;45155;-79
2021/12/07 00:28:47;;;;;;;;;7.75;3.50;;;;;7.84;69.12;100746.88;4994346;28;45422;-79
2021/12/07 00:31:22;;;;;;;;;3.50;2.75;;;;;7.66;69.24;100715.38;4994226;28;45564;-88
2021/12/07 00:34:05;;;;;;;;;2.25;2.25;;;;;7.86;69.06;100744.22;4994084;28;47631;-81
2021/12/07 00:36:31;;;;;;;;;2.00;2.00;;;;;7.70;69.05;100727.63;4993443;28;45382;-81
2021/12/07 00:38:56;;;;;;;;;2.75;2.00;;;;;7.78;68.95;100749.47;4988052;28;45805;-81
2021/12/07 00:41:22;;;;;;;;;0.50;0.50;;;;;7.72;68.70;100733.75;4992718;28;45405;-80
2021/12/07 00:43:47;;;;;;;;;3.25;2.50;;;;;7.48;68.86;100695.25;4984033;28;47205;-83
2021/12/07 00:46:13;;;;;;;;;2.50;2.50;;;;;7.84;68.73;100766.94;4974357;28;45420;-80
2021/12/07 00:48:38;;;;;;;;;2.50;2.50;;;;;7.68;68.76;100740.69;4974109;28;45463;-80
2021/12/07 00:51:04;;;;;;;;;1.00;1.00;;;;;7.83;68.76;100755.59;4975017;28;45349;-81
2021/12/07 00:53:30;;;;;;;;;2.50;2.00;;;;;7.69;68.50;100737.22;4974283;28;46305;-81
2021/12/07 00:55:59;;;;;;;;;0.50;0.00;;;;;7.72;68.37;100746.84;4966679;28;45822;-80
2021/12/07 00:58:26;;;;;;;;;1.00;1.00;;;;;7.66;68.53;100731.97;4993910;28;45229;-80
2021/12/07 01:01:02;;;;;;;;;3.00;3.00;;;;;7.58;67.75;100712.75;4994090;28;45342;-81
2021/12/07 01:03:28;;;;;;;;;5.25;2.00;;;;;7.78;68.24;100757.31;4993220;28;46136;-84
2021/12/07 01:06:04;;;;;;;;;2.00;2.00;;;;;7.68;67.59;100738.09;4993680;28;45397;-84
2021/12/07 01:25:17;;;;;;;;;2.50;1.00;;;;;7.71;66.45;100759.03;4954939;28;45890;-76
2021/12/07 01:27:45;;;;;;;;;0.00;0.00;;;;;7.61;66.89;100745.91;4955140;28;45510;-79
2021/12/07 01:30:21;;;;;;;;;3.00;2.00;;;;;7.68;66.41;100758.16;4955262;28;45393;-79
2021/12/07 01:38:08;;;;;;;;;2.50;1.00;;;;;7.42;66.75;100722.31;4954991;28;45499;-77
2021/12/07 01:41:05;;;;;;;;;1.00;1.00;;;;;7.57;66.30;100752.00;4955153;28;45345;-78
2021/12/07 01:46:38;;;;;;;;;0.75;0.75;;;;;7.47;66.76;100746.75;4954863;28;45546;-78
2021/12/07 01:59:36;;;;;;;;;1.00;1.00;;;;;7.44;67.15;100777.28;4996437;28;45314;-79
2021/12/07 02:02:10;;;;;;;;;0.25;0.25;;;;;7.38;66.77;100769.41;4996105;28;45451;-79
2021/12/07 02:04:37;;;;;;;;;1.00;1.00;;;;;7.02;67.22;100716.00;4996117;28;45529;-78
2021/12/07 02:07:04;;;;;;;;;3.00;1.00;;;;;7.32;67.18;100767.63;4996137;28;45404;-77
2021/12/07 02:09:30;;;;;;;;;0.75;0.00;;;;;7.23;67.38;100758.00;4996359;28;45347;-76
2021/12/07 02:12:00;;;;;;;;;2.50;2.50;;;;;7.36;67.26;100776.38;4996162;28;45431;-79
2021/12/07 02:14:27;;;;;;;;;0.75;0.75;;;;;7.16;67.21;100750.13;4996486;28;45429;-77
2021/12/07 02:17:14;;;;;;;;;0.00;0.00;;;;;7.15;66.81;100749.22;4995676;28;46174;-78
2021/12/07 02:19:40;;;;;;;;;1.00;1.00;;;;;7.31;67.01;100776.34;4995531;28;45355;-77
2021/12/07 02:22:07;;;;;;;;;1.00;1.00;;;;;7.35;66.89;100775.53;4995177;28;45962;-79
2021/12/07 02:24:33;;;;;;;;;1.00;0.00;;;;;7.38;67.00;100774.66;4995935;28;45568;-75
2021/12/07 02:27:00;;;;;;;;;0.75;0.75;;;;;7.30;66.96;100769.38;4995901;28;47302;-76
2021/12/07 02:29:26;;;;;;;;;0.00;0.00;;;;;7.39;66.93;100781.63;4996291;28;45394;-76
2021/12/07 02:31:54;;;;;;;;;1.00;1.00;;;;;6.40;66.64;100626.75;4995119;28;45431;-77
2021/12/07 02:34:21;;;;;;;;;1.00;0.25;;;;;7.17;66.90;100744.88;4996486;28;45506;-76
2021/12/07 02:36:48;;;;;;;;;0.00;0.00;;;;;7.39;66.69;100781.63;4996069;28;46362;-77
2021/12/07 02:39:13;;;;;;;;;0.00;0.00;;;;;7.14;66.83;100744.84;4996332;28;45337;-76
2021/12/07 02:41:40;;;;;;;;;0.00;0.00;;;;;7.25;66.60;100771.97;4996756;28;45336;-75
2021/12/07 02:44:07;;;;;;;;;1.25;0.00;;;;;7.29;66.97;100767.63;4996485;28;45345;-76
2021/12/07 02:46:34;;;;;;;;;1.00;1.00;;;;;7.07;66.50;100745.69;4995666;28;45658;-76
2021/12/07 02:49:00;;;;;;;;;3.00;1.25;;;;;6.89;66.67;100707.22;4995319;28;45362;-77
2021/12/07 02:51:25;;;;;;;;;2.25;0.25;;;;;7.33;66.69;100797.31;4995323;28;45566;-78
2021/12/07 02:53:51;;;;;;;;;0.00;0.00;;;;;7.25;66.79;100782.44;4995634;28;45342;-78
2021/12/07 02:56:17;;;;;;;;;1.50;1.00;;;;;7.04;66.54;100740.44;4995597;28;45557;-78
2021/12/07 02:58:44;;;;;;;;;1.00;0.00;;;;;7.30;66.63;100790.34;4995428;28;45462;-78
2021/12/07 03:01:16;;;;;;;;;1.00;1.00;;;;;7.16;66.46;100777.16;4995711;28;45254;-77
2021/12/07 03:03:54;;;;;;;;;0.00;0.00;;;;;7.25;66.74;100787.69;4977881;28;45252;-77
2021/12/07 03:06:48;;;;;;;;;0.00;0.00;;;;;7.29;66.83;100789.44;4995710;28;46014;-77
2021/12/07 03:28:06;;;;;;;;;3.50;1.00;;;;;7.07;68.46;100806.75;4994989;28;45437;-78
2021/12/07 03:30:32;;;;;;;;;1.00;1.00;;;;;6.84;68.50;100782.19;4995124;28;45401;-76
2021/12/07 03:32:59;;;;;;;;;3.00;3.00;;;;;6.81;68.65;100790.00;4994868;28;45248;-75
2021/12/07 03:35:26;;;;;;;;;1.00;1.00;;;;;6.94;68.77;100819.75;4994315;28;45391;-75
2021/12/07 03:37:52;;;;;;;;;2.50;1.50;;;;;6.84;68.80;100795.28;4994817;28;45408;-76
2021/12/07 03:40:17;;;;;;;;;1.25;1.25;;;;;6.90;68.79;100804.91;4994898;28;45409;-77
2021/12/07 03:42:43;;;;;;;;;1.50;1.00;;;;;6.98;68.77;100811.94;4994958;28;45782;-76
2021/12/07 03:45:09;;;;;;;;;2.25;2.25;;;;;6.42;68.81;100708.66;4994983;28;45443;-77
2021/12/07 03:47:35;;;;;;;;;1.00;1.00;;;;;7.05;68.91;100807.59;4995106;28;45571;-77
2021/12/07 03:50:00;;;;;;;;;1.00;1.00;;;;;6.84;68.43;100772.59;4994545;28;45240;-77
2021/12/07 03:52:26;;;;;;;;;1.50;1.50;;;;;6.89;69.03;100797.94;4994876;28;45443;-77
2021/12/07 03:54:51;;;;;;;;;4.75;1.00;;;;;6.99;68.79;100821.53;4994986;28;45870;-76
2021/12/07 03:57:16;;;;;;;;;2.25;1.75;;;;;6.96;68.82;100812.81;4994740;28;46223;-76
2021/12/07 03:59:42;;;;;;;;;6.25;2.00;;;;;7.00;68.88;100804.09;4994532;28;45312;-76
2021/12/07 04:02:07;;;;;;;;;1.25;1.25;;;;;6.94;68.75;100780.53;4994717;28;45263;-77
2021/12/07 04:04:34;;;;;;;;;3.00;2.00;;;;;6.66;68.91;100751.53;4994712;28;45319;-75
2021/12/07 04:07:00;;;;;;;;;2.50;2.50;;;;;6.87;68.60;100790.94;4976641;28;46301;-76
2021/12/07 04:09:25;;;;;;;;;2.00;0.00;;;;;6.74;68.69;100765.56;4994330;28;45574;-77
2021/12/07 04:11:51;;;;;;;;;1.00;1.00;;;;;6.91;68.73;100788.31;4994686;28;45424;-79
2021/12/07 04:14:16;;;;;;;;;1.50;1.50;;;;;6.89;68.72;100793.56;4977107;28;45441;-77
2021/12/07 04:16:42;;;;;;;;;0.25;0.25;;;;;6.56;68.43;100747.09;4994595;28;45691;-77
2021/12/07 04:19:08;;;;;;;;;0.00;0.00;;;;;6.56;68.76;100776.72;4994111;28;45389;-77
2021/12/07 04:21:33;;;;;;;;;2.25;2.25;;;;;6.51;68.37;100751.44;4994507;28;45538;-76
2021/12/07 04:23:59;;;;;;;;;2.00;1.00;;;;;6.81;68.99;100816.16;4994385;28;45344;-76
2021/12/07 04:26:25;;;;;;;;;0.25;0.25;;;;;6.59;69.16;100778.50;4976579;28;46105;-77
2021/12/07 04:28:51;;;;;;;;;2.00;0.00;;;;;6.40;68.63;100744.38;4994143;28;45321;-78
2021/12/07 04:31:17;;;;;;;;;3.00;1.25;;;;;6.67;68.34;100797.75;4994045;28;45227;-77
2021/12/07 04:33:43;;;;;;;;;0.00;0.00;;;;;6.71;68.70;100799.50;4993963;28;45329;-76
2021/12/07 04:36:10;;;;;;;;;1.00;1.00;;;;;6.52;69.27;100766.28;4994074;28;46081;-76
2021/12/07 04:38:36;;;;;;;;;1.75;1.75;;;;;6.74;69.05;100793.47;4993827;28;45334;-76
2021/12/07 04:41:01;;;;;;;;;1.50;1.00;;;;;6.49;68.82;100747.91;4993954;28;45427;-77
2021/12/07 04:43:27;;;;;;;;;1.00;1.00;;;;;6.49;69.02;100756.63;4994181;28;45333;-76
2021/12/07 04:59:08;;;;;;;;;2.00;2.00;;;;;6.58;69.22;100802.91;4996666;28;45384;-75
2021/12/07 05:01:34;;;;;;;;;1.00;1.00;;;;;6.30;69.06;100768.69;4997000;28;45409;-77
2021/12/07 05:04:05;;;;;;;;;3.50;2.00;;;;;6.53;69.19;100799.38;4996715;28;45490;-76
2021/12/07 05:06:33;;;;;;;;;2.00;2.00;;;;;6.35;68.98;100769.59;4996514;28;47005;-76
2021/12/07 05:09:06;;;;;;;;;1.00;1.00;;;;;6.50;69.23;100791.53;4996420;28;45593;-76
2021/12/07 05:11:46;;;;;;;;;0.75;0.75;;;;;6.24;69.56;100747.72;4996454;28;45387;-75
2021/12/07 05:14:17;;;;;;;;;6.00;3.75;;;;;6.55;69.23;100797.66;4996930;28;45192;-76
2021/12/07 05:24:54;;;;;;;;;2.75;2.50;;;;;6.55;69.25;100793.31;4996294;28;45173;-76
2021/12/07 05:38:19;;;;;;;;;3.00;2.25;;;;;6.31;69.74;100787.88;4996031;28;45804;-77
2021/12/07 05:40:44;;;;;;;;;5.25;3.00;;;;;6.24;69.35;100771.25;4996106;28;45412;-79
2021/12/07 05:43:09;;;;;;;;;6.25;4.50;;;;;6.33;69.49;100787.00;4978786;28;45422;-78
2021/12/07 05:45:37;;;;;;;;;6.50;6.50;;;;;6.42;69.83;100807.16;4996388;28;45574;-79
2021/12/07 05:48:04;;;;;;;;;8.00;5.50;;;;;6.11;69.89;100753.72;4996198;28;46173;-78
2021/12/07 05:50:32;;;;;;;;;2.50;2.00;;;;;6.24;70.13;100786.91;4995921;28;45320;-78
2021/12/07 05:52:59;;;;;;;;;2.00;2.00;;;;;6.38;69.82;100795.78;4995969;28;45317;-82
2021/12/07 05:55:26;;;;;;;;;3.50;3.50;;;;;6.36;69.95;100794.88;4978238;28;45522;-77
2021/12/07 05:57:52;;;;;;;;;2.00;2.00;;;;;6.31;69.63;100804.41;4994308;28;47287;-76
2021/12/07 06:00:26;;;;;;;;;4.50;3.25;;;;;6.12;70.06;100779.84;4995420;28;45451;-76
2021/12/07 06:03:00;;;;;;;;;4.50;3.00;;;;;6.29;70.36;100813.09;4979354;28;45423;-75
2021/12/07 06:05:27;;;;;;;;;6.25;4.75;;;;;6.16;69.84;100793.81;4995722;28;45360;-76
2021/12/07 06:07:53;;;;;;;;;3.25;3.25;;;;;5.79;70.29;100738.56;4995077;28;45465;-75
2021/12/07 06:10:19;;;;;;;;;4.25;2.75;;;;;6.27;70.38;100820.94;4995401;28;45325;-78
2021/12/07 06:12:44;;;;;;;;;2.75;2.75;;;;;5.97;70.35;100766.63;4995717;28;45376;-79
2021/12/07 06:15:11;;;;;;;;;1.75;1.75;;;;;5.90;69.69;100757.81;4995965;28;45271;-80
2021/12/07 06:17:37;;;;;;;;;6.50;6.50;;;;;6.15;70.01;100797.28;4995275;28;46298;-78
2021/12/07 06:20:04;;;;;;;;;6.00;6.00;;;;;5.89;70.34;100752.59;4995452;28;45319;-77
2021/12/07 06:22:30;;;;;;;;;7.75;7.75;;;;;5.88;70.70;100743.88;4995515;28;45461;-78
2021/12/07 06:24:55;;;;;;;;;6.25;6.00;;;;;6.03;70.55;100752.75;4997974;28;45351;-84
2021/12/07 06:27:20;;;;;;;;;7.00;6.25;;;;;5.95;70.05;100729.16;4997102;28;47458;-84
2021/12/07 06:29:46;;;;;;;;;7.25;6.00;;;;;6.26;70.51;100769.53;4994953;28;45425;-75
2021/12/07 06:32:11;;;;;;;;;8.00;5.75;;;;;6.12;70.19;100738.03;4977115;28;45557;-77
2021/12/07 06:34:37;;;;;;;;;7.50;7.50;;;;;6.09;70.20;100721.47;4977380;28;45602;-78
2021/12/07 06:37:06;;;;;;;;;10.00;5.75;;;;;6.34;70.01;100741.69;4976817;28;45665;-75
2021/12/07 06:39:32;;;;;;;;;8.25;8.25;;;;;5.78;70.07;100642.75;4995079;28;45270;-80
2021/12/07 06:41:57;;;;;;;;;27.00;21.50;;;;;6.30;70.38;100729.50;4976927;28;45285;-76
2021/12/07 06:44:22;;;;;;;;;15.75;14.25;;;;;6.36;70.14;100726.03;4994942;28;45257;-75
2021/12/07 06:46:48;;;;;;;;;7.00;7.00;;;;;6.16;69.59;100684.06;4984380;28;45441;-77
2021/12/07 06:49:15;;;;;;;;;9.50;7.00;;;;;6.52;70.38;100750.59;4957697;28;45861;-73
2021/12/07 06:51:41;;;;;;;;;6.25;6.25;;;;;6.36;70.37;100719.06;4975400;28;45398;-77
2021/12/07 06:54:07;;;;;;;;;11.25;7.75;;;;;6.48;70.25;100726.13;4957335;28;45521;-75
2021/12/07 06:56:32;;;;;;;;;7.50;6.75;;;;;6.58;70.04;100729.69;4975175;28;46598;-71
2021/12/07 06:58:58;;;;;;;;;40.00;35.75;;;;;6.42;69.90;100698.22;4974959;28;45344;-80
2021/12/07 07:01:23;;;;;;;;;20.25;13.00;;;;;6.52;69.99;100714.84;4957237;28;45452;-78
2021/12/07 07:03:49;;;;;;;;;13.00;11.75;;;;;6.48;69.56;100696.50;4975547;28;45317;-79
2021/12/07 07:06:14;;;;;;;;;24.50;20.25;;;;;6.33;69.60;100666.78;4975264;28;46312;-77
2021/12/07 07:08:40;;;;;;;;;29.00;25.25;;;;;6.38;70.29;100678.13;4975232;28;45545;-78
2021/12/07 07:11:05;;;;;;;;;14.25;14.25;;;;;6.57;70.05;100707.03;4959354;28;45301;-78
2021/12/07 07:13:31;;;;;;;;;11.75;11.75;;;;;6.32;69.85;100664.13;4961931;28;45505;-78
2021/12/07 07:15:58;;;;;;;;;12.25;12.00;;;;;6.32;69.81;100670.25;4979486;28;45481;-75
2021/12/07 07:18:24;;;;;;;;;28.50;26.75;;;;;6.34;70.29;100680.72;4978562;28;45327;-76
2021/12/07 07:20:51;;;;;;;;;17.25;17.00;;;;;6.52;69.85;100713.97;4977281;28;45321;-80
2021/12/07 07:23:16;;;;;;;;;28.00;25.50;;;;;6.50;69.96;100707.84;4994952;28;45273;-75
2021/12/07 07:25:42;;;;;;;;;17.00;17.00;;;;;6.29;70.30;100665.00;4993503;28;46564;-77
2021/12/07 07:28:10;;;;;;;;;16.00;14.75;;;;;6.12;70.19;100635.25;4994390;28;45355;-75
2021/12/07 07:30:35;;;;;;;;;16.25;13.75;;;;;6.37;70.61;100679.00;4994507;28;45319;-80
2021/12/07 07:33:01;;;;;;;;;30.50;22.75;;;;;6.49;70.75;100682.56;4994130;28;45187;-75
2021/12/07 07:35:26;;;;;;;;;36.25;28.75;;;;;6.33;70.04;100648.47;4993709;28;46784;-76
2021/12/07 07:37:54;;;;;;;;;17.75;17.75;;;;;6.42;70.41;100656.38;4976293;28;45336;-75
2021/12/07 07:40:21;;;;;;;;;24.25;21.75;;;;;6.16;70.81;100597.84;4993765;28;45532;-75
2021/12/07 07:42:47;;;;;;;;;19.50;17.75;;;;;6.52;70.62;100661.69;4994293;28;45336;-75
2021/12/07 07:45:13;;;;;;;;;21.00;19.25;;;;;6.54;70.48;100652.06;4975367;28;47193;-76
2021/12/07 07:47:39;;;;;;;;;37.00;32.25;;;;;6.54;70.69;100644.22;4993329;28;45376;-75
2021/12/07 07:50:07;;;;;;;;;28.75;23.00;;;;;6.47;70.52;100627.66;4994101;28;45352;-75
2021/12/07 07:52:32;;;;;;;;;28.00;27.25;;;;;6.43;70.69;100612.81;4994073;28;45476;-76
2021/12/07 07:54:57;;;;;;;;;33.50;32.50;;;;;6.57;70.54;100639.03;4993639;28;46569;-75
2021/12/07 07:57:23;;;;;;;;;40.25;33.25;;;;;6.36;70.79;100609.28;4993908;28;45360;-75
2021/12/07 07:59:48;;;;;;;;;27.25;23.25;;;;;6.12;70.76;100557.72;4994304;28;45306;-76
2021/12/07 08:02:14;;;;;;;;;32.00;29.25;;;;;6.59;70.78;100637.28;4994204;28;45483;-74
2021/12/07 08:04:41;;;;;;;;;37.75;32.50;;;;;6.45;70.42;100613.69;4993954;28;46330;-75
2021/12/07 08:07:06;;;;;;;;;33.00;29.50;;;;;6.38;70.68;100594.47;4993398;28;45451;-75
2021/12/07 08:09:32;;;;;;;;;26.75;22.50;;;;;6.50;70.90;100632.03;4959418;28;45783;-75
2021/12/07 08:11:57;;;;;;;;;24.50;21.75;;;;;6.42;70.74;100606.72;4993466;28;45319;-74
2021/12/07 08:14:23;;;;;;;;;24.00;22.00;;;;;6.59;70.55;100626.81;4993564;28;46138;-75
2021/12/07 08:16:49;;;;;;;;;35.50;30.50;;;;;6.57;70.51;100618.13;4993265;28;45321;-75
2021/12/07 08:19:14;;;;;;;;;42.00;35.00;;;;;6.57;70.45;100615.50;4993545;28;45250;-74
2021/12/07 08:21:40;;;;;;;;;29.75;25.50;;;;;6.59;70.80;100616.38;4992653;28;45169;-75
2021/12/07 08:24:05;;;;;;;;;56.25;46.50;;;;;6.52;70.86;100598.94;4975292;28;48359;-77
2021/12/07 08:26:31;;;;;;;;;24.00;24.00;;;;;6.44;70.69;100581.47;4992716;28;45311;-75
2021/12/07 08:28:58;;;;;;;;;27.00;27.00;;;;;6.41;70.55;100564.88;4993273;28;45443;-74
2021/12/07 08:31:26;;;;;;;;;26.00;21.75;;;;;6.63;70.58;100585.00;4993267;28;45525;-75
2021/12/07 08:33:51;;;;;;;;;24.25;23.00;;;;;6.64;70.75;100583.31;4992681;28;45428;-77
2021/12/07 08:36:16;;;;;;;;;26.00;22.75;;;;;6.55;70.17;100583.25;4992605;28;45479;-76
2021/12/07 08:38:42;;;;;;;;;22.00;20.75;;;;;6.32;70.06;100539.56;4993297;28;45434;-75
2021/12/07 08:41:09;;;;;;;;;29.75;26.00;;;;;6.32;70.31;100539.56;4975380;28;45463;-74
2021/12/07 08:43:36;;;;;;;;;61.00;48.75;;;;;6.44;70.16;100571.00;4992799;28;46510;-75
2021/12/07 08:46:03;;;;;;;;;22.75;21.75;;;;;6.41;70.25;100559.63;4993275;28;45327;-75
2021/12/07 08:48:28;;;;;;;;;18.75;18.75;;;;;6.21;70.08;100534.28;4992936;28;45373;-73
2021/12/07 08:50:57;;;;;;;;;26.75;25.75;;;;;6.40;70.79;100586.66;4992870;28;45205;-74
2021/12/07 08:53:27;;;;;;;;;31.75;30.75;;;;;6.43;70.94;100584.91;4975189;28;48208;-73
2021/12/07 09:01:23;;;;;;;;;30.00;28.00;;;;;6.40;71.18;100527.41;4993147;28;45229;-75
2021/12/07 09:03:50;;;;;;;;;24.00;22.75;;;;;6.51;70.99;100548.34;4992864;28;46526;-76
2021/12/07 09:06:16;;;;;;;;;31.50;27.50;;;;;6.43;70.96;100547.44;4992657;28;45397;-75
2021/12/07 09:08:42;;;;;;;;;22.75;22.00;;;;;6.41;71.33;100513.44;4974550;28;45399;-76
2021/12/07 09:11:10;;;;;;;;;27.75;25.75;;;;;6.42;71.05;100512.59;4993261;28;45400;-75
2021/12/07 09:13:36;;;;;;;;;29.50;27.75;;;;;6.27;71.41;100483.78;4992977;28;46361;-80
2021/12/07 09:16:03;;;;;;;;;41.00;37.25;;;;;6.13;71.17;100448.88;4992472;28;45427;-76
2021/12/07 09:18:29;;;;;;;;;35.50;29.50;;;;;6.45;71.09;100503.91;4975103;28;45290;-75
2021/12/07 09:20:57;;;;;;;;;34.75;31.25;;;;;6.27;71.21;100475.94;4992826;28;45328;-75
2021/12/07 09:23:23;;;;;;;;;50.50;41.00;;;;;6.36;71.73;100481.19;4992129;28;46163;-74
2021/12/07 09:25:48;;;;;;;;;26.50;21.25;;;;;6.37;71.52;100468.97;4991075;28;45371;-74
2021/12/07 09:28:14;;;;;;;;;31.75;28.75;;;;;6.39;71.48;100467.25;5010393;28;45329;-77
2021/12/07 09:30:40;;;;;;;;;30.75;27.00;;;;;6.40;71.41;100458.56;5012168;28;45466;-76
2021/12/07 09:33:06;;;;;;;;;31.00;27.50;;;;;6.37;72.13;100454.19;4992487;28;45323;-78
2021/12/07 09:35:33;;;;;;;;;33.25;31.50;;;;;6.36;71.76;100462.91;4985958;28;45493;-74
2021/12/07 09:37:59;;;;;;;;;55.25;45.25;;;;;6.51;71.64;100466.44;4979724;28;45415;-74
2021/12/07 09:40:28;;;;;;;;;36.50;34.25;;;;;6.44;71.90;100479.50;4993629;28;45526;-74
2021/12/07 09:42:55;;;;;;;;;32.75;29.50;;;;;6.50;71.85;100496.06;4988467;28;46289;-76
2021/12/07 09:45:20;;;;;;;;;39.00;37.50;;;;;6.39;71.78;100473.38;4985548;28;45435;-76
2021/12/07 09:47:47;;;;;;;;;31.50;29.25;;;;;6.22;72.21;100452.41;4981303;27;45299;-77
2021/12/07 09:50:17;;;;;;;;;23.50;22.00;;;;;6.45;71.64;100482.97;4990971;28;45511;-75
2021/12/07 09:52:47;;;;;;;;;24.50;22.00;;;;;6.50;71.93;100488.22;4979264;27;47546;-76
2021/12/07 09:55:13;;;;;;;;;38.00;33.25;;;;;6.37;71.24;100453.31;4985151;28;45361;-77
2021/12/07 09:57:39;;;;;;;;;225.00;195.40;;;;;6.29;71.34;100432.38;4969248;28;45290;-75
2021/12/07 10:00:07;;;;;;;;;78.25;64.00;;;;;6.51;71.14;100466.44;4979062;28;45378;-74
2021/12/07 10:02:32;;;;;;;;;17.50;17.50;;;;;6.34;71.55;100437.63;4977513;28;46507;-75
2021/12/07 10:04:58;;;;;;;;;19.75;19.00;;;;;6.47;70.91;100459.44;4987359;28;45487;-73
2021/12/07 10:07:24;;;;;;;;;19.25;19.25;;;;;6.43;71.13;100442.88;4967027;28;45510;-73
2021/12/07 10:09:49;;;;;;;;;11.75;11.00;;;;;6.50;71.05;100464.69;4980893;28;45353;-75
2021/12/07 10:12:19;;;;;;;;;16.50;14.25;;;;;6.47;71.26;100459.44;4990914;28;46300;-78
2021/12/07 10:14:45;;;;;;;;;14.25;14.25;;;;;6.49;71.94;100452.47;4979741;28;45467;-74
2021/12/07 10:17:11;;;;;;;;;17.75;13.75;;;;;6.42;71.97;100428.94;4975354;28;45542;-77
2021/12/07 10:19:42;;;;;;;;;22.00;18.25;;;;;6.16;71.98;100360.91;4993300;28;45498;-76
2021/12/07 10:22:10;;;;;;;;;21.00;21.00;;;;;6.16;71.65;100344.38;4976030;28;48124;-75
2021/12/07 10:24:45;;;;;;;;;39.50;28.50;;;;;6.52;71.71;100395.00;4977601;28;45353;-77
2021/12/07 10:27:10;;;;;;;;;40.25;36.50;;;;;6.55;71.99;100392.38;4985210;28;45447;-75
2021/12/07 10:29:40;;;;;;;;;36.25;31.00;;;;;6.34;71.90;100344.38;4986006;28;45661;-77
2021/12/07 10:32:08;;;;;;;;;30.50;29.00;;;;;6.68;72.33;100375.81;4978020;28;46428;-78
2021/12/07 10:34:36;;;;;;;;;21.00;17.25;;;;;6.66;72.26;100369.69;4990375;28;45441;-74
2021/12/07 10:37:09;;;;;;;;;27.00;22.25;;;;;6.74;72.18;100377.59;4981222;28;45457;-78
2021/12/07 10:39:41;;;;;;;;;38.25;35.50;;;;;6.49;72.75;100313.91;4982317;28;45528;-79
2021/12/07 10:42:11;;;;;;;;;39.50;32.00;;;;;6.78;72.15;100354.03;4990375;28;46216;-77
2021/12/07 10:44:40;;;;;;;;;45.50;39.25;;;;;6.67;72.73;100319.16;4955491;28;45476;-77
2021/12/07 10:47:13;;;;;;;;;24.00;22.75;;;;;6.86;72.74;100339.22;4956718;28;45537;-77
2021/12/07 10:49:51;;;;;;;;;29.50;28.50;;;;;6.87;72.85;100327.00;4974818;28;45380;-75
2021/12/07 10:52:30;;;;;;;;;34.75;33.50;;;;;6.89;72.86;100313.94;4974111;28;46295;-76
2021/12/07 10:55:30;;;;;;;;;30.75;27.25;;;;;6.92;72.62;100301.72;4973894;28;45502;-78
2021/12/07 10:58:08;;;;;;;;;29.25;27.75;;;;;6.60;72.50;100238.97;4914102;28;45540;-76
2021/12/07 11:00:45;;;;;;;;;35.50;31.25;;;;;7.00;72.54;100283.38;4914237;28;45491;-76
2021/12/07 11:03:14;;;;;;;;;25.75;23.25;;;;;6.92;72.57;100254.63;4914151;28;45628;-75
2021/12/07 11:05:50;;;;;;;;;27.25;24.00;;;;;6.99;72.53;100250.25;4914366;28;45483;-75
2021/12/07 11:08:18;;;;;;;;;28.50;21.75;;;;;7.06;73.08;100258.06;4914113;28;45508;-75
2021/12/07 11:10:48;;;;;;;;;43.00;32.50;;;;;7.11;72.79;100254.59;4914243;28;45480;-75
2021/12/07 11:13:18;;;;;;;;;38.75;34.75;;;;;7.14;72.75;100237.13;4913814;28;45532;-76
2021/12/07 11:15:50;;;;;;;;;39.50;33.75;;;;;7.16;72.71;100221.41;4913842;28;45434;-76
2021/12/07 11:18:18;;;;;;;;;66.00;55.60;;;;;6.84;72.35;100138.69;4914249;28;45380;-77
2021/12/07 11:20:43;;;;;;;;;38.00;36.25;;;;;7.23;72.07;100203.06;4913533;28;45475;-76
2021/12/07 11:23:20;;;;;;;;;40.25;37.75;;;;;7.27;72.58;100177.72;4915708;28;46225;-75
2021/12/07 11:31:26;;;;;;;;;25.50;23.25;;;;;7.25;72.10;100106.19;4900406;28;45520;-74
2021/12/07 11:34:16;;;;;;;;;24.50;17.75;;;;;7.03;71.73;100055.72;4904062;28;47784;-76
2021/12/07 11:36:49;;;;;;;;;23.00;21.25;;;;;7.37;71.54;100115.72;4989137;28;45362;-76
2021/12/07 11:39:50;;;;;;;;;40.75;35.75;;;;;7.14;71.71;100051.31;4978126;28;45397;-79
2021/12/07 11:42:17;;;;;;;;;41.25;37.75;;;;;7.41;71.12;100075.56;4954842;28;45517;-78
2021/12/07 11:44:59;;;;;;;;;40.75;32.50;;;;;7.63;71.76;100103.34;4931754;28;46246;-81
2021/12/07 11:47:25;;;;;;;;;49.75;40.50;;;;;7.66;71.55;100100.69;4932064;28;45506;-75
2021/12/07 11:49:50;;;;;;;;;29.25;28.25;;;;;7.69;71.38;100103.31;4930606;28;45465;-84
2021/12/07 11:52:16;;;;;;;;;20.50;18.25;;;;;7.18;71.45;99995.47;4931801;28;45440;-79
2021/12/07 11:54:43;;;;;;;;;21.25;16.75;;;;;7.53;71.03;100044.06;4931244;28;45591;-80
2021/12/07 11:57:13;;;;;;;;;22.75;19.50;;;;;7.70;71.00;100073.59;4931656;28;45469;-80
2021/12/07 11:59:40;;;;;;;;;24.50;24.25;;;;;7.54;71.39;100039.69;4931685;28;45563;-76
2021/12/07 12:02:05;;;;;;;;;18.50;15.50;;;;;7.70;71.09;100038.69;4932020;28;45605;-77
2021/12/07 12:04:32;;;;;;;;;18.00;16.00;;;;;7.62;71.14;100012.56;4931423;28;46104;-76
2021/12/07 12:06:59;;;;;;;;;18.25;15.00;;;;;7.82;70.78;100028.09;4930658;28;45532;-75
2021/12/07 12:09:26;;;;;;;;;21.50;17.25;;;;;7.15;70.51;99897.78;4931995;28;45519;-75
2021/12/07 12:12:09;;;;;;;;;20.50;19.25;;;;;7.87;70.81;100017.59;4915766;28;45434;-77
2021/12/07 12:14:40;;;;;;;;;23.50;22.00;;;;;7.91;70.92;100022.78;4931824;28;46432;-77
2021/12/07 12:17:27;;;;;;;;;14.50;14.50;;;;;7.93;70.20;99999.16;4922730;28;45580;-75
2021/12/07 12:20:23;;;;;;;;;15.00;13.00;;;;;7.87;70.68;99967.81;4967843;28;45420;-74
2021/12/07 12:23:13;;;;;;;;;11.75;11.75;;;;;7.63;70.40;99927.00;4976345;28;45408;-75
2021/12/07 12:25:39;;;;;;;;;21.25;17.25;;;;;7.98;70.60;99976.41;4984096;28;46560;-75
2021/12/07 12:28:04;;;;;;;;;12.25;9.25;;;;;7.91;70.34;99969.47;4972698;28;45161;-73
2021/12/07 12:30:30;;;;;;;;;21.75;14.25;;;;;8.02;70.48;99964.16;4971887;28;45349;-89
2021/12/07 12:32:59;;;;;;;;;25.50;20.25;;;;;8.05;70.25;99953.63;4976682;28;45409;-83
2021/12/07 12:35:34;;;;;;;;;11.50;8.50;;;;;8.07;70.19;99931.75;4977414;28;47588;-85
2021/12/07 12:38:00;;;;;;;;;27.00;24.50;;;;;7.90;70.21;99890.03;4995045;28;45314;-84
2021/12/07 12:40:32;;;;;;;;;13.75;12.50;;;;;7.56;70.23;99816.22;4979077;28;45350;-79
2021/12/07 12:43:01;;;;;;;;;17.50;17.50;;;;;8.11;70.33;99894.16;4990414;28;45415;-86
2021/12/07 12:45:35;;;;;;;;;12.25;6.75;;;;;7.85;69.91;99849.91;4975718;28;46219;-81
2021/12/07 12:48:08;;;;;;;;;17.00;14.50;;;;;7.78;70.11;99813.34;4970798;28;45310;-82
2021/12/07 12:50:43;;;;;;;;;22.75;22.00;;;;;8.20;70.04;99874.78;4982165;28;45470;-85
2021/12/07 12:53:15;;;;;;;;;27.75;27.75;;;;;7.94;69.67;99802.66;4962711;28;45659;-81
2021/12/07 12:55:44;;;;;;;;;14.00;14.00;;;;;8.23;69.52;99842.44;4988696;28;46186;-81
2021/12/07 12:58:31;;;;;;;;;20.25;18.25;;;;;7.97;69.94;99780.78;4988554;28;45443;-82
2021/12/07 13:01:02;;;;;;;;;13.25;11.50;;;;;8.29;69.53;99832.72;4963468;28;45405;-84
2021/12/07 13:03:43;;;;;;;;;15.75;13.75;;;;;8.30;69.45;99818.72;4993731;28;45510;-88
2021/12/07 13:06:15;;;;;;;;;21.75;18.50;;;;;8.32;69.57;99827.44;4977626;28;47918;-84
2021/12/07 13:08:50;;;;;;;;;12.00;9.75;;;;;8.13;69.22;99803.28;4995455;28;45366;-86